createdAt,value
2017-07-10T00:00:17.073Z,0
2017-07-10T00:01:17.052Z,0
2017-07-10T00:02:16.717Z,0
2017-07-10T00:03:17.048Z,0
2017-07-10T00:04:17.021Z,0
2017-07-10T00:05:16.702Z,0
2017-07-10T00:06:16.766Z,0
2017-07-10T00:07:16.696Z,0
2017-07-10T00:08:16.368Z,0
2017-07-10T00:09:16.666Z,0
2017-07-10T00:10:16.665Z,0
2017-07-10T00:11:16.661Z,0
2017-07-10T00:12:16.333Z,0
2017-07-10T00:13:16.619Z,0
2017-07-10T00:14:16.943Z,0
2017-07-10T00:15:16.828Z,0
2017-07-10T00:16:16.910Z,0
2017-07-10T00:17:16.590Z,0
2017-07-10T00:18:16.971Z,0
2017-07-10T00:19:16.584Z,0
2017-07-10T00:20:16.796Z,0
2017-07-10T00:21:16.785Z,0
2017-07-10T00:22:16.542Z,0
2017-07-10T00:23:15.616Z,0
2017-07-10T00:24:16.530Z,0
2017-07-10T00:25:17.053Z,0
2017-07-10T00:26:16.512Z,0
2017-07-10T00:27:16.869Z,0
2017-07-10T00:28:16.811Z,0
2017-07-10T00:29:16.826Z,0
2017-07-10T00:30:16.470Z,0
2017-07-10T00:31:16.462Z,0
2017-07-10T00:32:16.775Z,0
2017-07-10T00:33:16.765Z,0
2017-07-10T00:34:16.751Z,0
2017-07-10T00:35:16.754Z,0
2017-07-10T00:36:15.803Z,0
2017-07-10T00:37:16.429Z,0
2017-07-10T00:38:16.720Z,0
2017-07-10T00:39:16.762Z,0
2017-07-10T00:40:16.077Z,0
2017-07-10T00:41:16.083Z,0
2017-07-10T00:42:16.378Z,0
2017-07-10T00:43:16.671Z,0
2017-07-10T00:44:16.678Z,0
2017-07-10T00:45:15.733Z,0
2017-07-10T00:46:16.675Z,0
2017-07-10T00:47:16.316Z,0
2017-07-10T00:48:16.645Z,0
2017-07-10T00:49:16.313Z,0
2017-07-10T00:50:16.614Z,0
2017-07-10T00:51:16.289Z,0
2017-07-10T00:52:16.269Z,0
2017-07-10T00:53:16.268Z,0
2017-07-10T00:54:16.264Z,0
2017-07-10T00:55:15.947Z,0
2017-07-10T00:56:16.566Z,0
2017-07-10T00:57:15.610Z,0
2017-07-10T00:58:16.229Z,0
2017-07-10T00:59:16.536Z,0
2017-07-10T01:00:16.207Z,0
2017-07-10T01:01:16.515Z,0
2017-07-10T01:02:16.201Z,0
2017-07-10T01:03:16.490Z,0
2017-07-10T01:04:16.483Z,0
2017-07-10T01:05:16.468Z,0
2017-07-10T01:06:15.847Z,0
2017-07-10T01:07:16.158Z,0
2017-07-10T01:08:16.129Z,0
2017-07-10T01:09:16.437Z,0
2017-07-10T01:10:16.432Z,0
2017-07-10T01:11:16.428Z,0
2017-07-10T01:12:16.398Z,0
2017-07-10T01:13:16.092Z,0
2017-07-10T01:14:15.761Z,0
2017-07-10T01:15:16.388Z,0
2017-07-10T01:16:16.386Z,0
2017-07-10T01:17:15.437Z,0
2017-07-10T01:18:15.737Z,0
2017-07-10T01:19:16.019Z,0
2017-07-10T01:20:15.398Z,0
2017-07-10T01:21:16.020Z,0
2017-07-10T01:22:16.004Z,0
2017-07-10T01:23:15.368Z,0
2017-07-10T01:24:16.288Z,0
2017-07-10T01:25:15.975Z,0
2017-07-10T01:26:16.031Z,0
2017-07-10T01:27:16.274Z,0
2017-07-10T01:28:16.271Z,0
2017-07-10T01:29:15.641Z,0
2017-07-10T01:30:15.935Z,0
2017-07-10T01:31:15.932Z,0
2017-07-10T01:32:15.975Z,0
2017-07-10T01:33:16.218Z,0
2017-07-10T01:34:16.204Z,0
2017-07-10T01:35:15.587Z,0
2017-07-10T01:36:16.204Z,0
2017-07-10T01:37:15.557Z,0
2017-07-10T01:38:16.172Z,0
2017-07-10T01:39:16.169Z,0
2017-07-10T01:40:16.144Z,0
2017-07-10T01:41:15.840Z,0
2017-07-10T01:42:15.809Z,0
2017-07-10T01:43:16.114Z,0
2017-07-10T01:44:16.123Z,0
2017-07-10T01:45:16.100Z,0
2017-07-10T01:46:15.483Z,0
2017-07-10T01:47:15.767Z,0
2017-07-10T01:48:15.465Z,0
2017-07-10T01:49:15.760Z,0
2017-07-10T01:50:15.753Z,0
2017-07-10T01:51:16.054Z,0
2017-07-10T01:52:15.424Z,0
2017-07-10T01:53:16.033Z,0
2017-07-10T01:54:15.716Z,0
2017-07-10T01:55:15.387Z,0
2017-07-10T01:56:15.686Z,0
2017-07-10T01:57:16.010Z,0
2017-07-10T01:58:15.681Z,0
2017-07-10T01:59:15.982Z,0
2017-07-10T02:00:15.664Z,0
2017-07-10T02:01:15.958Z,0
2017-07-10T02:02:15.328Z,0
2017-07-10T02:03:15.325Z,0
2017-07-10T02:04:15.626Z,0
2017-07-10T02:05:15.620Z,0
2017-07-10T02:06:15.597Z,0
2017-07-10T02:07:15.602Z,0
2017-07-10T02:08:15.578Z,0
2017-07-10T02:09:15.566Z,0
2017-07-10T02:10:15.247Z,0
2017-07-10T02:11:15.876Z,0
2017-07-10T02:12:15.545Z,0
2017-07-10T02:13:15.855Z,0
2017-07-10T02:14:15.221Z,0
2017-07-10T02:15:15.893Z,0
2017-07-10T02:16:15.812Z,0
2017-07-10T02:17:14.882Z,0
2017-07-10T02:18:15.806Z,0
2017-07-10T02:19:15.793Z,0
2017-07-10T02:20:15.785Z,0
2017-07-10T02:21:15.455Z,0
2017-07-10T02:22:15.435Z,0
2017-07-10T02:23:14.517Z,0
2017-07-10T02:24:15.748Z,0
2017-07-10T02:25:15.436Z,0
2017-07-10T02:26:15.410Z,0
2017-07-10T02:27:15.775Z,0
2017-07-10T02:28:15.403Z,0
2017-07-10T02:29:15.388Z,0
2017-07-10T02:30:15.069Z,0
2017-07-10T02:31:15.690Z,0
2017-07-10T02:32:15.357Z,0
2017-07-10T02:33:15.350Z,0
2017-07-10T02:34:15.347Z,0
2017-07-10T02:35:15.022Z,0
2017-07-10T02:36:15.013Z,0
2017-07-10T02:37:15.316Z,0
2017-07-10T02:38:14.983Z,0
2017-07-10T02:39:15.296Z,0
2017-07-10T02:40:15.279Z,0
2017-07-10T02:41:15.596Z,0
2017-07-10T02:42:15.579Z,0
2017-07-10T02:43:15.273Z,0
2017-07-10T02:44:15.263Z,0
2017-07-10T02:45:15.536Z,0
2017-07-10T02:46:15.544Z,0
2017-07-10T02:47:15.537Z,0
2017-07-10T02:48:14.918Z,0
2017-07-10T02:49:15.502Z,0
2017-07-10T02:50:15.207Z,0
2017-07-10T02:51:15.189Z,0
2017-07-10T02:52:15.175Z,0
2017-07-10T02:53:15.179Z,0
2017-07-10T02:54:15.478Z,0
2017-07-10T02:55:15.153Z,0
2017-07-10T02:56:14.528Z,0
2017-07-10T02:57:15.150Z,0
2017-07-10T02:58:15.126Z,0
2017-07-10T02:59:15.116Z,0
2017-07-10T03:00:15.114Z,0
2017-07-10T03:01:15.100Z,0
2017-07-10T03:02:15.104Z,0
2017-07-10T03:03:14.783Z,0
2017-07-10T03:04:15.079Z,0
2017-07-10T03:05:14.750Z,0
2017-07-10T03:06:14.762Z,0
2017-07-10T03:07:14.741Z,0
2017-07-10T03:08:14.118Z,0
2017-07-10T03:09:15.020Z,0
2017-07-10T03:10:14.712Z,0
2017-07-10T03:11:15.323Z,0
2017-07-10T03:12:15.316Z,0
2017-07-10T03:13:15.006Z,0
2017-07-10T03:14:14.687Z,0
2017-07-10T03:15:15.286Z,0
2017-07-10T03:16:15.284Z,0
2017-07-10T03:17:14.971Z,5
2017-07-10T03:18:14.645Z,5
2017-07-10T03:19:15.274Z,5
2017-07-10T03:20:15.253Z,5
2017-07-10T03:21:15.241Z,5
2017-07-10T03:22:14.909Z,5
2017-07-10T03:23:14.592Z,5
2017-07-10T03:24:14.593Z,5
2017-07-10T03:25:14.575Z,5
2017-07-10T03:26:14.886Z,5
2017-07-10T03:27:14.570Z,5
2017-07-10T03:28:14.872Z,10
2017-07-10T03:29:14.865Z,10
2017-07-10T03:30:13.915Z,10
2017-07-10T03:31:14.830Z,10
2017-07-10T03:32:15.138Z,10
2017-07-10T03:33:15.122Z,10
2017-07-10T03:34:15.114Z,15
2017-07-10T03:35:14.799Z,15
2017-07-10T03:36:14.800Z,15
2017-07-10T03:37:14.480Z,15
2017-07-10T03:38:14.790Z,15
2017-07-10T03:39:15.104Z,20
2017-07-10T03:40:15.072Z,20
2017-07-10T03:41:15.070Z,20
2017-07-10T03:42:15.054Z,20
2017-07-10T03:43:15.044Z,20
2017-07-10T03:44:14.416Z,20
2017-07-10T03:45:15.030Z,20
2017-07-10T03:46:15.020Z,20
2017-07-10T03:47:15.056Z,25
2017-07-10T03:48:15.009Z,25
2017-07-10T03:49:14.997Z,25
2017-07-10T03:50:14.991Z,25
2017-07-10T03:51:14.968Z,25
2017-07-10T03:52:14.956Z,25
2017-07-10T03:53:14.662Z,25
2017-07-10T03:54:14.647Z,25
2017-07-10T03:55:14.938Z,25
2017-07-10T03:56:14.935Z,25
2017-07-10T03:57:14.924Z,30
2017-07-10T03:58:14.597Z,30
2017-07-10T03:59:14.909Z,35
2017-07-10T04:00:14.905Z,40
2017-07-10T04:01:14.878Z,45
2017-07-10T04:02:14.881Z,50
2017-07-10T04:03:14.553Z,50
2017-07-10T04:04:14.545Z,50
2017-07-10T04:05:14.848Z,55
2017-07-10T04:06:14.534Z,55
2017-07-10T04:07:14.539Z,55
2017-07-10T04:08:14.830Z,60
2017-07-10T04:09:14.503Z,60
2017-07-10T04:10:14.188Z,65
2017-07-10T04:11:14.785Z,70
2017-07-10T04:12:14.471Z,75
2017-07-10T04:13:14.468Z,85
2017-07-10T04:14:14.136Z,95
2017-07-10T04:15:14.144Z,95
2017-07-10T04:16:14.811Z,105
2017-07-10T04:17:14.449Z,110
2017-07-10T04:18:14.737Z,120
2017-07-10T04:19:14.730Z,130
2017-07-10T04:20:14.737Z,140
2017-07-10T04:21:14.698Z,155
2017-07-10T04:22:14.686Z,165
2017-07-10T04:23:13.763Z,170
2017-07-10T04:24:14.672Z,180
2017-07-10T04:25:14.367Z,190
2017-07-10T04:26:14.653Z,205
2017-07-10T04:27:14.344Z,215
2017-07-10T04:28:14.033Z,220
2017-07-10T04:29:14.647Z,230
2017-07-10T04:30:14.639Z,235
2017-07-10T04:31:14.307Z,235
2017-07-10T04:32:14.294Z,240
2017-07-10T04:33:14.664Z,245
2017-07-10T04:34:14.602Z,250
2017-07-10T04:35:14.602Z,260
2017-07-10T04:36:14.274Z,265
2017-07-10T04:37:14.578Z,270
2017-07-10T04:38:14.237Z,270
2017-07-10T04:39:14.553Z,280
2017-07-10T04:40:14.546Z,285
2017-07-10T04:41:14.532Z,290
2017-07-10T04:42:14.559Z,295
2017-07-10T04:43:14.509Z,295
2017-07-10T04:44:14.497Z,305
2017-07-10T04:45:14.506Z,315
2017-07-10T04:46:14.507Z,335
2017-07-10T04:47:14.483Z,355
2017-07-10T04:48:14.157Z,355
2017-07-10T04:49:14.462Z,360
2017-07-10T04:50:14.142Z,360
2017-07-10T04:51:13.824Z,365
2017-07-10T04:52:14.133Z,375
2017-07-10T04:53:14.446Z,385
2017-07-10T04:54:14.118Z,540
2017-07-10T04:55:14.100Z,400
2017-07-10T04:56:14.420Z,455
2017-07-10T04:57:14.088Z,440
2017-07-10T04:58:14.384Z,440
2017-07-10T04:59:14.385Z,655
2017-07-10T05:00:14.064Z,605
2017-07-10T05:01:14.072Z,610
2017-07-10T05:02:14.051Z,415
2017-07-10T05:03:13.721Z,405
2017-07-10T05:04:14.028Z,410
2017-07-10T05:05:14.345Z,435
2017-07-10T05:06:14.340Z,470
2017-07-10T05:07:14.335Z,505
2017-07-10T05:08:13.700Z,525
2017-07-10T05:09:14.317Z,530
2017-07-10T05:10:14.292Z,550
2017-07-10T05:11:13.973Z,560
2017-07-10T05:12:14.285Z,575
2017-07-10T05:13:13.650Z,565
2017-07-10T05:14:14.265Z,550
2017-07-10T05:15:14.263Z,565
2017-07-10T05:16:13.944Z,565
2017-07-10T05:17:13.934Z,545
2017-07-10T05:18:13.928Z,530
2017-07-10T05:19:14.220Z,525
2017-07-10T05:20:13.907Z,515
2017-07-10T05:21:13.585Z,510
2017-07-10T05:22:13.885Z,510
2017-07-10T05:23:13.256Z,515
2017-07-10T05:24:13.873Z,530
2017-07-10T05:25:14.181Z,530
2017-07-10T05:26:14.169Z,520
2017-07-10T05:27:14.163Z,505
2017-07-10T05:28:14.143Z,685
2017-07-10T05:29:13.521Z,520
2017-07-10T05:30:14.142Z,525
2017-07-10T05:31:14.143Z,620
2017-07-10T05:32:14.118Z,565
2017-07-10T05:33:14.098Z,680
2017-07-10T05:34:14.103Z,555
2017-07-10T05:35:13.160Z,605
2017-07-10T05:36:12.840Z,605
2017-07-10T05:37:13.765Z,695
2017-07-10T05:38:14.067Z,705
2017-07-10T05:39:14.070Z,775
2017-07-10T05:40:14.049Z,840
2017-07-10T05:41:13.427Z,915
2017-07-10T05:42:13.113Z,910
2017-07-10T05:43:14.038Z,1095
2017-07-10T05:44:13.721Z,1720
2017-07-10T05:45:13.402Z,1370
2017-07-10T05:46:13.701Z,1375
2017-07-10T05:47:14.013Z,835
2017-07-10T05:48:13.687Z,820
2017-07-10T05:49:13.995Z,825
2017-07-10T05:50:13.993Z,830
2017-07-10T05:51:13.662Z,840
2017-07-10T05:52:13.960Z,845
2017-07-10T05:53:13.636Z,870
2017-07-10T05:54:13.639Z,880
2017-07-10T05:55:13.949Z,890
2017-07-10T05:56:13.937Z,885
2017-07-10T05:57:13.610Z,855
2017-07-10T05:58:13.611Z,820
2017-07-10T05:59:13.910Z,820
2017-07-10T06:00:13.903Z,815
2017-07-10T06:01:13.598Z,840
2017-07-10T06:02:12.959Z,890
2017-07-10T06:03:13.884Z,1005
2017-07-10T06:04:13.245Z,960
2017-07-10T06:05:13.556Z,1120
2017-07-10T06:06:13.866Z,995
2017-07-10T06:07:13.530Z,1020
2017-07-10T06:08:12.922Z,1035
2017-07-10T06:09:13.520Z,1085
2017-07-10T06:10:13.205Z,1145
2017-07-10T06:11:13.500Z,1065
2017-07-10T06:12:13.504Z,960
2017-07-10T06:13:13.806Z,900
2017-07-10T06:14:13.483Z,885
2017-07-10T06:15:13.481Z,880
2017-07-10T06:16:13.468Z,880
2017-07-10T06:17:13.154Z,875
2017-07-10T06:18:13.762Z,845
2017-07-10T06:19:13.444Z,865
2017-07-10T06:20:13.787Z,900
2017-07-10T06:21:13.745Z,975
2017-07-10T06:22:13.419Z,1200
2017-07-10T06:23:12.787Z,2325
2017-07-10T06:24:13.409Z,1510
2017-07-10T06:25:13.713Z,2025
2017-07-10T06:26:13.386Z,2490
2017-07-10T06:27:13.380Z,2315
2017-07-10T06:28:13.674Z,2215
2017-07-10T06:29:13.067Z,2450
2017-07-10T06:30:13.050Z,2480
2017-07-10T06:31:13.655Z,2025
2017-07-10T06:32:13.670Z,2195
2017-07-10T06:33:13.637Z,2340
2017-07-10T06:34:13.011Z,2375
2017-07-10T06:35:13.310Z,2445
2017-07-10T06:36:13.621Z,2640
2017-07-10T06:37:13.321Z,2005
2017-07-10T06:38:12.988Z,1845
2017-07-10T06:39:13.279Z,1795
2017-07-10T06:40:12.969Z,1480
2017-07-10T06:41:13.588Z,1510
2017-07-10T06:42:13.591Z,1725
2017-07-10T06:43:13.267Z,1550
2017-07-10T06:44:12.962Z,1730
2017-07-10T06:45:12.951Z,1150
2017-07-10T06:46:13.555Z,1245
2017-07-10T06:47:13.553Z,1970
2017-07-10T06:48:13.563Z,1485
2017-07-10T06:49:12.942Z,1665
2017-07-10T06:50:13.523Z,1925
2017-07-10T06:51:12.894Z,2515
2017-07-10T06:52:12.589Z,2850
2017-07-10T06:53:13.516Z,1710
2017-07-10T06:54:13.198Z,1595
2017-07-10T06:55:13.191Z,2035
2017-07-10T06:56:12.634Z,1815
2017-07-10T06:57:13.486Z,1355
2017-07-10T06:58:13.487Z,1475
2017-07-10T06:59:12.859Z,1545
2017-07-10T07:00:12.851Z,2270
2017-07-10T07:01:13.154Z,2350
2017-07-10T07:02:13.468Z,3085
2017-07-10T07:03:12.823Z,2535
2017-07-10T07:04:13.456Z,2310
2017-07-10T07:05:13.126Z,1760
2017-07-10T07:06:12.809Z,1695
2017-07-10T07:07:13.117Z,1665
2017-07-10T07:08:13.098Z,1625
2017-07-10T07:09:12.793Z,1565
2017-07-10T07:10:12.468Z,1480
2017-07-10T07:11:13.386Z,1415
2017-07-10T07:12:13.378Z,1315
2017-07-10T07:13:13.386Z,1235
2017-07-10T07:14:13.059Z,1185
2017-07-10T07:15:13.045Z,1130
2017-07-10T07:16:12.734Z,1090
2017-07-10T07:17:12.731Z,1070
2017-07-10T07:18:13.345Z,1075
2017-07-10T07:19:13.029Z,1095
2017-07-10T07:20:13.021Z,1120
2017-07-10T07:21:13.400Z,1140
2017-07-10T07:22:12.380Z,1150
2017-07-10T07:23:12.689Z,1150
2017-07-10T07:24:12.691Z,1115
2017-07-10T07:25:12.682Z,1115
2017-07-10T07:26:12.987Z,1150
2017-07-10T07:27:12.662Z,1180
2017-07-10T07:28:13.280Z,1185
2017-07-10T07:29:13.265Z,1150
2017-07-10T07:30:12.950Z,1120
2017-07-10T07:31:12.653Z,1080
2017-07-10T07:32:13.256Z,1055
2017-07-10T07:33:12.929Z,1030
2017-07-10T07:34:12.923Z,1020
2017-07-10T07:35:13.230Z,985
2017-07-10T07:36:12.599Z,970
2017-07-10T07:37:13.217Z,995
2017-07-10T07:38:12.895Z,1055
2017-07-10T07:39:12.881Z,1115
2017-07-10T07:40:12.867Z,1170
2017-07-10T07:41:12.869Z,1210
2017-07-10T07:42:12.852Z,1230
2017-07-10T07:43:12.853Z,1265
2017-07-10T07:44:12.828Z,1280
2017-07-10T07:45:12.213Z,1290
2017-07-10T07:46:12.211Z,1305
2017-07-10T07:47:12.805Z,1275
2017-07-10T07:48:12.813Z,1300
2017-07-10T07:49:12.808Z,1410
2017-07-10T07:50:13.104Z,1420
2017-07-10T07:51:12.782Z,1385
2017-07-10T07:52:12.765Z,1460
2017-07-10T07:53:12.794Z,1390
2017-07-10T07:54:12.757Z,1700
2017-07-10T07:55:12.759Z,2000
2017-07-10T07:56:12.439Z,2190
2017-07-10T07:57:12.728Z,2290
2017-07-10T07:58:12.420Z,2555
2017-07-10T07:59:12.731Z,2665
2017-07-10T08:00:12.726Z,1905
2017-07-10T08:01:12.720Z,1910
2017-07-10T08:02:12.698Z,2000
2017-07-10T08:03:12.692Z,2180
2017-07-10T08:04:13.002Z,2500
2017-07-10T08:05:12.740Z,2310
2017-07-10T08:06:12.681Z,2345
2017-07-10T08:07:12.669Z,2315
2017-07-10T08:08:12.654Z,2305
2017-07-10T08:09:12.974Z,2215
2017-07-10T08:10:12.639Z,2175
2017-07-10T08:11:12.334Z,2180
2017-07-10T08:12:12.676Z,2525
2017-07-10T08:13:12.322Z,2920
2017-07-10T08:14:12.615Z,2880
2017-07-10T08:15:12.300Z,2940
2017-07-10T08:16:12.613Z,2540
2017-07-10T08:17:12.921Z,2585
2017-07-10T08:18:12.281Z,3070
2017-07-10T08:19:12.596Z,3725
2017-07-10T08:20:12.893Z,5030
2017-07-10T08:21:12.270Z,4210
2017-07-10T08:22:12.251Z,3780
2017-07-10T08:23:11.949Z,3655
2017-07-10T08:24:12.863Z,3540
2017-07-10T08:25:12.856Z,3140
2017-07-10T08:26:12.549Z,2735
2017-07-10T08:27:12.915Z,3490
2017-07-10T08:28:12.232Z,3780
2017-07-10T08:29:12.247Z,4170
2017-07-10T08:30:12.539Z,2950
2017-07-10T08:31:11.900Z,2910
2017-07-10T08:32:12.523Z,2915
2017-07-10T08:33:12.511Z,2540
2017-07-10T08:34:12.196Z,2405
2017-07-10T08:35:11.880Z,2335
2017-07-10T08:36:12.803Z,2505
2017-07-10T08:37:12.489Z,2870
2017-07-10T08:38:12.168Z,3230
2017-07-10T08:39:12.478Z,2535
2017-07-10T08:40:12.782Z,2355
2017-07-10T08:41:12.469Z,2795
2017-07-10T08:42:12.451Z,3400
2017-07-10T08:43:12.766Z,3500
2017-07-10T08:44:12.463Z,4290
2017-07-10T08:45:12.442Z,3445
2017-07-10T08:46:12.746Z,2995
2017-07-10T08:47:12.428Z,2680
2017-07-10T08:48:12.748Z,2260
2017-07-10T08:49:12.728Z,2045
2017-07-10T08:50:11.796Z,1755
2017-07-10T08:51:12.723Z,1645
2017-07-10T08:52:12.414Z,1735
2017-07-10T08:53:12.706Z,1505
2017-07-10T08:54:12.714Z,1370
2017-07-10T08:55:12.390Z,1355
2017-07-10T08:56:12.380Z,980
2017-07-10T08:57:12.370Z,675
2017-07-10T08:58:12.684Z,885
2017-07-10T08:59:12.371Z,830
2017-07-10T09:00:12.357Z,705
2017-07-10T09:01:12.663Z,660
2017-07-10T09:02:12.357Z,635
2017-07-10T09:03:12.043Z,710
2017-07-10T09:04:12.335Z,705
2017-07-10T09:05:12.328Z,710
2017-07-10T09:06:12.317Z,625
2017-07-10T09:07:11.996Z,510
2017-07-10T09:08:12.321Z,505
2017-07-10T09:09:12.290Z,660
2017-07-10T09:10:12.298Z,815
2017-07-10T09:11:11.978Z,940
2017-07-10T09:12:11.958Z,1010
2017-07-10T09:13:12.594Z,1095
2017-07-10T09:14:11.632Z,1170
2017-07-10T09:15:12.558Z,1145
2017-07-10T09:16:11.938Z,1125
2017-07-10T09:17:11.922Z,1165
2017-07-10T09:18:12.225Z,1205
2017-07-10T09:19:12.223Z,1035
2017-07-10T09:20:12.222Z,1095
2017-07-10T09:21:11.884Z,1225
2017-07-10T09:22:11.881Z,1150
2017-07-10T09:23:11.248Z,1030
2017-07-10T09:24:11.873Z,1125
2017-07-10T09:25:11.867Z,1340
2017-07-10T09:26:11.845Z,1380
2017-07-10T09:27:12.465Z,1325
2017-07-10T09:28:12.460Z,1405
2017-07-10T09:29:12.144Z,1515
2017-07-10T09:30:11.522Z,1430
2017-07-10T09:31:12.124Z,1315
2017-07-10T09:32:11.822Z,1320
2017-07-10T09:33:12.100Z,1440
2017-07-10T09:34:12.100Z,1515
2017-07-10T09:35:11.792Z,1560
2017-07-10T09:36:11.785Z,1715
2017-07-10T09:37:11.459Z,1855
2017-07-10T09:38:11.754Z,1915
2017-07-10T09:39:12.070Z,1925
2017-07-10T09:40:12.045Z,1905
2017-07-10T09:41:11.732Z,1875
2017-07-10T09:42:12.027Z,1880
2017-07-10T09:43:12.028Z,1770
2017-07-10T09:44:11.717Z,1880
2017-07-10T09:45:12.340Z,2195
2017-07-10T09:46:11.695Z,2455
2017-07-10T09:47:12.003Z,2520
2017-07-10T09:48:12.009Z,2745
2017-07-10T09:49:11.673Z,2875
2017-07-10T09:50:11.964Z,2845
2017-07-10T09:51:12.285Z,2735
2017-07-10T09:52:12.272Z,2735
2017-07-10T09:53:12.262Z,2760
2017-07-10T09:54:11.941Z,2955
2017-07-10T09:55:12.241Z,2820
2017-07-10T09:56:11.917Z,2725
2017-07-10T09:57:12.216Z,2455
2017-07-10T09:58:11.923Z,2380
2017-07-10T09:59:11.597Z,2310
2017-07-10T10:00:11.494Z,2390
2017-07-10T10:01:11.584Z,2255
2017-07-10T10:02:12.224Z,2075
2017-07-10T10:03:12.182Z,2535
2017-07-10T10:04:11.564Z,2575
2017-07-10T10:05:11.616Z,2560
2017-07-10T10:06:11.864Z,2705
2017-07-10T10:07:11.548Z,2375
2017-07-10T10:08:12.167Z,2560
2017-07-10T10:09:11.533Z,2355
2017-07-10T10:10:11.213Z,1895
2017-07-10T10:11:11.819Z,2145
2017-07-10T10:12:11.818Z,2305
2017-07-10T10:13:11.496Z,2395
2017-07-10T10:14:11.803Z,2620
2017-07-10T10:15:11.498Z,2795
2017-07-10T10:16:12.100Z,2985
2017-07-10T10:17:12.102Z,2535
2017-07-10T10:18:11.769Z,2410
2017-07-10T10:19:12.080Z,1985
2017-07-10T10:20:11.446Z,1845
2017-07-10T10:21:10.817Z,1880
2017-07-10T10:22:11.436Z,1815
2017-07-10T10:23:11.111Z,2140
2017-07-10T10:24:11.727Z,2190
2017-07-10T10:25:11.414Z,1840
2017-07-10T10:26:11.409Z,1995
2017-07-10T10:27:11.777Z,2165
2017-07-10T10:28:11.396Z,1480
2017-07-10T10:29:11.698Z,1270
2017-07-10T10:30:11.990Z,1725
2017-07-10T10:31:11.687Z,1390
2017-07-10T10:32:11.673Z,1460
2017-07-10T10:33:11.666Z,1225
2017-07-10T10:34:11.339Z,1230
2017-07-10T10:35:11.655Z,1245
2017-07-10T10:36:11.331Z,1340
2017-07-10T10:37:11.336Z,1360
2017-07-10T10:38:11.627Z,1470
2017-07-10T10:39:11.315Z,1775
2017-07-10T10:40:11.613Z,1810
2017-07-10T10:41:11.298Z,1405
2017-07-10T10:42:11.596Z,1475
2017-07-10T10:43:11.599Z,1385
2017-07-10T10:44:11.887Z,1175
2017-07-10T10:45:10.950Z,1340
2017-07-10T10:46:11.265Z,1470
2017-07-10T10:47:11.559Z,1195
2017-07-10T10:48:11.848Z,1220
2017-07-10T10:49:10.917Z,1335
2017-07-10T10:50:11.227Z,1175
2017-07-10T10:51:11.527Z,1450
2017-07-10T10:52:11.202Z,1340
2017-07-10T10:53:11.196Z,1250
2017-07-10T10:54:11.497Z,1310
2017-07-10T10:55:11.174Z,1220
2017-07-10T10:56:10.859Z,1335
2017-07-10T10:57:11.470Z,1345
2017-07-10T10:58:10.837Z,1420
2017-07-10T10:59:11.137Z,1460
2017-07-10T11:00:11.139Z,1605
2017-07-10T11:01:11.443Z,1610
2017-07-10T11:02:11.122Z,1700
2017-07-10T11:03:11.115Z,1480
2017-07-10T11:04:11.110Z,1435
2017-07-10T11:05:11.428Z,1370
2017-07-10T11:06:11.081Z,1655
2017-07-10T11:07:11.699Z,1935
2017-07-10T11:08:11.401Z,2085
2017-07-10T11:09:11.361Z,2255
2017-07-10T11:10:11.371Z,2125
2017-07-10T11:11:11.660Z,2130
2017-07-10T11:12:11.025Z,2145
2017-07-10T11:13:11.342Z,2215
2017-07-10T11:14:11.638Z,2350
2017-07-10T11:15:11.643Z,2350
2017-07-10T11:16:11.634Z,2080
2017-07-10T11:17:11.616Z,2090
2017-07-10T11:18:11.304Z,3095
2017-07-10T11:19:11.587Z,3290
2017-07-10T11:20:10.669Z,2950
2017-07-10T11:21:11.285Z,3180
2017-07-10T11:22:10.973Z,3475
2017-07-10T11:23:10.338Z,2740
2017-07-10T11:24:11.246Z,2340
2017-07-10T11:25:10.933Z,2745
2017-07-10T11:26:11.551Z,3535
2017-07-10T11:27:10.619Z,2455
2017-07-10T11:28:11.231Z,2805
2017-07-10T11:29:10.914Z,3815
2017-07-10T11:30:10.914Z,4410
2017-07-10T11:31:11.514Z,3460
2017-07-10T11:32:11.527Z,4535
2017-07-10T11:33:11.498Z,2850
2017-07-10T11:34:10.574Z,3800
2017-07-10T11:35:11.485Z,5585
2017-07-10T11:36:11.159Z,4410
2017-07-10T11:37:11.456Z,4295
2017-07-10T11:38:11.154Z,1890
2017-07-10T11:39:10.515Z,1815
2017-07-10T11:40:11.149Z,1755
2017-07-10T11:41:11.138Z,1780
2017-07-10T11:42:11.120Z,1680
2017-07-10T11:43:11.422Z,1665
2017-07-10T11:44:11.435Z,1875
2017-07-10T11:45:10.793Z,2405
2017-07-10T11:46:10.787Z,1850
2017-07-10T11:47:10.472Z,2030
2017-07-10T11:48:10.779Z,1870
2017-07-10T11:49:11.078Z,1775
2017-07-10T11:50:11.078Z,1835
2017-07-10T11:51:10.451Z,1890
2017-07-10T11:52:11.056Z,1655
2017-07-10T11:53:10.733Z,1570
2017-07-10T11:54:11.044Z,1515
2017-07-10T11:55:10.401Z,1440
2017-07-10T11:56:11.343Z,1300
2017-07-10T11:57:10.397Z,1185
2017-07-10T11:58:11.322Z,1160
2017-07-10T11:59:11.317Z,1095
2017-07-10T12:00:11.062Z,1070
2017-07-10T12:01:10.991Z,1090
2017-07-10T12:02:11.298Z,1100
2017-07-10T12:03:10.977Z,1145
2017-07-10T12:04:10.965Z,1365
2017-07-10T12:05:11.272Z,1785
2017-07-10T12:06:10.957Z,1785
2017-07-10T12:07:10.327Z,1620
2017-07-10T12:08:10.941Z,1800
2017-07-10T12:09:10.920Z,1845
2017-07-10T12:10:10.921Z,1620
2017-07-10T12:11:10.914Z,1690
2017-07-10T12:12:10.907Z,1850
2017-07-10T12:13:10.585Z,1895
2017-07-10T12:14:10.891Z,1795
2017-07-10T12:15:10.249Z,1640
2017-07-10T12:16:11.195Z,1605
2017-07-10T12:17:10.241Z,1380
2017-07-10T12:18:11.178Z,1175
2017-07-10T12:19:10.859Z,1190
2017-07-10T12:20:10.232Z,1200
2017-07-10T12:21:10.840Z,1225
2017-07-10T12:22:10.835Z,1305
2017-07-10T12:23:09.887Z,1305
2017-07-10T12:24:10.804Z,1365
2017-07-10T12:25:10.820Z,1460
2017-07-10T12:26:10.492Z,1400
2017-07-10T12:27:10.477Z,1265
2017-07-10T12:28:10.780Z,1410
2017-07-10T12:29:10.662Z,1630
2017-07-10T12:30:10.463Z,1790
2017-07-10T12:31:10.147Z,1760
2017-07-10T12:32:10.769Z,1565
2017-07-10T12:33:10.747Z,1700
2017-07-10T12:34:10.955Z,1780
2017-07-10T12:35:10.333Z,1830
2017-07-10T12:36:10.419Z,1845
2017-07-10T12:37:10.410Z,1790
2017-07-10T12:38:11.030Z,1640
2017-07-10T12:39:10.707Z,1640
2017-07-10T12:40:24.653Z,1600
2017-07-10T12:41:09.759Z,1425
2017-07-10T12:42:10.998Z,1260
2017-07-10T12:43:10.993Z,1160
2017-07-10T12:44:10.672Z,1105
2017-07-10T12:45:10.967Z,1120
2017-07-10T12:46:10.990Z,1215
2017-07-10T12:47:11.031Z,1435
2017-07-10T12:48:10.338Z,1905
2017-07-10T12:49:10.944Z,1990
2017-07-10T12:50:10.938Z,1715
2017-07-10T12:51:10.615Z,1370
2017-07-10T12:52:10.305Z,1260
2017-07-10T12:53:10.911Z,1155
2017-07-10T12:54:10.926Z,1090
2017-07-10T12:55:10.287Z,1200
2017-07-10T12:56:10.909Z,1185
2017-07-10T12:57:10.583Z,1115
2017-07-10T12:58:09.961Z,1220
2017-07-10T12:59:10.879Z,1350
2017-07-10T13:00:10.567Z,1445
2017-07-10T13:01:10.571Z,1410
2017-07-10T13:02:10.863Z,1275
2017-07-10T13:03:10.127Z,1220
2017-07-10T13:04:10.548Z,1290
2017-07-10T13:05:10.532Z,1175
2017-07-10T13:06:09.893Z,1105
2017-07-10T13:07:10.513Z,1285
2017-07-10T13:08:10.518Z,1325
2017-07-10T13:09:10.516Z,1075
2017-07-10T13:10:10.192Z,995
2017-07-10T13:11:10.169Z,980
2017-07-10T13:12:10.472Z,1070
2017-07-10T13:13:10.468Z,1120
2017-07-10T13:14:10.991Z,1040
2017-07-10T13:15:10.456Z,980
2017-07-10T13:16:10.460Z,1130
2017-07-10T13:17:10.126Z,1125
2017-07-10T13:18:10.444Z,1090
2017-07-10T13:19:09.503Z,1140
2017-07-10T13:20:10.430Z,1105
2017-07-10T13:21:10.411Z,1215
2017-07-10T13:22:10.401Z,1375
2017-07-10T13:23:09.784Z,1150
2017-07-10T13:24:10.385Z,990
2017-07-10T13:25:10.082Z,940
2017-07-10T13:26:10.687Z,940
2017-07-10T13:27:10.371Z,965
2017-07-10T13:28:09.728Z,830
2017-07-10T13:29:10.655Z,805
2017-07-10T13:30:10.027Z,915
2017-07-10T13:31:10.031Z,980
2017-07-10T13:32:10.335Z,855
2017-07-10T13:33:10.652Z,795
2017-07-10T13:34:09.998Z,835
2017-07-10T13:35:10.614Z,750
2017-07-10T13:36:10.616Z,700
2017-07-10T13:37:09.979Z,745
2017-07-10T13:38:09.665Z,815
2017-07-10T13:39:10.582Z,830
2017-07-10T13:40:10.268Z,780
2017-07-10T13:41:09.634Z,670
2017-07-10T13:42:23.281Z,690
2017-07-10T13:43:10.229Z,680
2017-07-10T13:44:10.227Z,570
2017-07-10T13:45:09.609Z,460
2017-07-10T13:46:09.598Z,395
2017-07-10T13:47:10.426Z,370